Weather reports worldwide

Advertisment
Vandellos, Spain (8169): temperature & dewpoint: 10.09.2019 05:00:00 - 16.09.2019 05:00:00 (CEST)Vandellos, Spain (8169): wind speed & gusts: 10.09.2019 05:00:00 - 16.09.2019 05:00:00 (CEST)Vandellos, Spain (8169): wind direction: 10.09.2019 05:00:00 - 16.09.2019 05:00:00 (CEST)Vandellos, Spain (8169): precipitation: 10.09.2019 05:00:00 - 16.09.2019 05:00:00 (CEST)
Date & Time tt [°C] td [°C] ff [km/h] ff [kn] fx [km/h] fx [kn] dd rr [mm]
16.09.2019 05:00:00 - - - - - - - -
16.09.2019 04:00:00 22,5 11,6 4 2 12 6 NNE 0,0
16.09.2019 03:00:00 22,6 12,2 4 2 13 7 NNE 0,0
16.09.2019 02:00:00 22,3 13,4 5 3 11 6 NNE -
16.09.2019 01:00:00 22,7 14,8 6 3 14 8 NNE 0,0
16.09.2019 00:00:00 22,7 15,3 5 3 16 9 NNE 0,1
15.09.2019 23:00:00 22,8 17,3 4 2 21 11 NNE 0,0
15.09.2019 22:00:00 23,0 18,1 7 4 24 13 NNE 0,0
15.09.2019 21:00:00 23,2 19,1 10 6 22 12 NE 0,0
15.09.2019 20:00:00 23,3 20,3 8 4 22 12 NE -
15.09.2019 19:00:00 23,8 20,3 9 5 29 16 NE 0,0
15.09.2019 18:00:00 24,9 20,4 11 6 29 16 NE 0,0
15.09.2019 17:00:00 25,9 20,0 9 5 29 15 NE 0,0
15.09.2019 16:00:00 25,0 20,5 14 8 31 17 NE 0,0
15.09.2019 15:00:00 26,4 20,5 9 5 31 17 NE 0,0
15.09.2019 14:00:00 26,4 16,9 14 8 30 16 NE -
15.09.2019 13:00:00 26,6 15,6 11 6 29 16 NE 0,0
15.09.2019 12:00:00 26,5 13,3 11 6 26 14 ENE 0,0
15.09.2019 11:00:00 25,6 13,2 8 4 21 11 NE 0,1
15.09.2019 10:00:00 24,9 11,4 10 6 24 13 NE 0,0
15.09.2019 09:00:00 23,8 11,1 11 6 27 15 NNE 0,0
15.09.2019 08:00:00 22,3 10,8 8 5 22 12 NNE -
15.09.2019 07:00:00 22,3 11,3 7 4 20 11 NNE 0,0
15.09.2019 06:00:00 22,4 12,3 8 4 24 13 NNE 0,0
15.09.2019 05:00:00 21,4 14,3 7 4 17 9 NNE 0,0
15.09.2019 04:00:00 21,4 14,5 5 3 13 7 NNE 0,0
15.09.2019 03:00:00 20,6 14,7 2 1 10 5 N 0,0
15.09.2019 02:00:00 22,0 16,3 7 4 18 10 N -
15.09.2019 01:00:00 21,4 12,7 3 2 8 4 NNE 0,0
15.09.2019 00:00:00 23,3 12,3 4 2 18 10 E 0,0
14.09.2019 23:00:00 22,6 13,9 6 3 17 9 NNE 0,0
14.09.2019 22:00:00 23,1 15,2 7 4 19 10 NNE 0,1
14.09.2019 21:00:00 22,8 15,9 6 3 16 8 NNE 0,0
14.09.2019 20:00:00 23,6 15,6 6 4 22 12 NNE -
14.09.2019 19:00:00 24,4 15,3 10 5 29 16 NNE 0,0
14.09.2019 18:00:00 25,5 14,9 10 5 27 14 NNE 0,0
14.09.2019 17:00:00 25,6 15,6 9 5 24 13 ENE 0,0
14.09.2019 16:00:00 26,5 14,9 9 5 32 17 NE 0,0
14.09.2019 15:00:00 27,0 15,3 11 6 31 17 NE 0,0
14.09.2019 14:00:00 26,1 15,8 11 6 32 17 NE -
14.09.2019 13:00:00 24,8 13,1 11 6 26 14 NNE 0,0
14.09.2019 12:00:00 26,5 12,5 7 4 17 9 ENE 0,0
14.09.2019 11:00:00 26,7 13,8 3 1 10 6 ESE 0,0
14.09.2019 10:00:00 25,7 12,5 3 1 12 6 ENE 0,1
14.09.2019 09:00:00 23,5 12,2 5 3 11 6 NNE 0,0
14.09.2019 08:00:00 22,0 11,1 5 3 12 7 NNE -
14.09.2019 07:00:00 21,4 11,1 4 2 10 6 NNE 0,0
14.09.2019 06:00:00 21,1 11,4 4 2 10 6 N 0,0
14.09.2019 05:00:00 21,0 11,3 4 2 10 5 NNE 0,0
14.09.2019 04:00:00 21,1 11,4 4 2 9 5 NNE 0,0
14.09.2019 03:00:00 20,6 12,3 4 2 19 10 NNE 0,0
14.09.2019 02:00:00 19,4 12,8 2 1 8 4 N -
14.09.2019 01:00:00 20,0 12,7 4 2 24 13 NNE 0,0
14.09.2019 00:00:00 19,0 14,2 7 4 23 12 NNE 0,1
13.09.2019 23:00:00 19,5 15,8 1 1 27 14 SW 0,0
13.09.2019 22:00:00 21,0 15,5 6 4 20 11 SW 0,0
13.09.2019 21:00:00 21,8 15,4 0 0 7 4 NNE 0,0
13.09.2019 20:00:00 23,5 13,7 4 2 6 3 NNW -
13.09.2019 19:00:00 24,6 15,0 2 1 9 5 NNE 0,0
13.09.2019 18:00:00 25,7 15,7 3 2 12 6 E 0,0
13.09.2019 17:00:00 26,1 15,4 6 3 29 15 ENE 0,0
13.09.2019 16:00:00 25,3 14,7 8 5 52 28 NE 0,0
13.09.2019 15:00:00 24,6 15,8 9 5 33 18 NE 0,0
13.09.2019 14:00:00 23,9 15,2 16 8 37 20 NE -
13.09.2019 13:00:00 22,7 15,8 10 5 26 14 NNE 0,0
13.09.2019 12:00:00 22,6 16,0 11 6 33 18 ENE 0,0
13.09.2019 11:00:00 24,0 11,3 6 3 24 13 NE 0,0
13.09.2019 10:00:00 24,6 10,0 9 5 30 16 NNE 0,0
13.09.2019 09:00:00 24,1 9,3 10 6 29 16 NNE 0,0
13.09.2019 08:00:00 23,1 9,4 13 7 36 20 N -
13.09.2019 07:00:00 22,2 9,3 9 5 26 14 NNE 0,0
13.09.2019 06:00:00 22,6 10,0 7 4 18 10 N 0,0
13.09.2019 05:00:00 21,9 11,0 6 3 18 10 NNE 0,0
13.09.2019 04:00:00 20,9 13,1 4 2 24 13 N 0,0
13.09.2019 03:00:00 20,7 12,6 5 3 16 9 NNE 0,1
13.09.2019 02:00:00 20,6 15,8 2 1 10 6 NNE -
13.09.2019 01:00:00 21,7 15,5 4 2 9 5 W 0,0
13.09.2019 00:00:00 19,9 15,2 1 1 7 4 W 0,0
12.09.2019 23:00:00 20,3 15,5 2 1 7 4 NW 0,0
12.09.2019 22:00:00 20,6 15,8 3 1 8 4 NNE 0,0
12.09.2019 21:00:00 21,6 15,7 2 1 8 4 NNE 0,0
12.09.2019 20:00:00 23,3 15,3 1 1 7 4 NNE -
12.09.2019 19:00:00 24,3 15,3 3 2 13 7 ENE 0,1
12.09.2019 18:00:00 25,3 14,7 5 3 14 8 ENE 0,0
12.09.2019 17:00:00 26,0 14,1 6 3 16 8 E 0,0
12.09.2019 16:00:00 26,4 13,9 5 3 16 9 ESE 0,0
12.09.2019 15:00:00 27,4 14,7 6 4 17 9 SSE 0,0
12.09.2019 14:00:00 27,4 13,8 6 3 14 8 SE -
12.09.2019 13:00:00 28,0 13,9 8 5 18 10 SE 0,0
12.09.2019 12:00:00 28,0 12,3 7 4 18 10 E 0,0
12.09.2019 11:00:00 27,9 11,9 6 3 18 10 ENE 0,0
12.09.2019 10:00:00 25,8 10,8 9 5 21 12 N 0,0
12.09.2019 09:00:00 24,0 10,6 10 6 24 13 NNW 0,0
12.09.2019 08:00:00 23,0 10,4 13 7 23 12 NNW -
12.09.2019 07:00:00 23,4 10,4 11 6 22 12 NNW 0,1
12.09.2019 06:00:00 24,3 10,9 11 6 23 12 NNW 0,0
12.09.2019 05:00:00 23,6 11,0 13 7 21 11 NNW 0,0
12.09.2019 04:00:00 24,0 12,0 13 7 26 14 NNW 0,0
12.09.2019 03:00:00 23,3 12,0 14 8 24 13 NW 0,0
12.09.2019 02:00:00 23,1 13,0 9 5 22 12 NW -
12.09.2019 01:00:00 23,3 12,0 8 4 22 12 NNW 0,1
12.09.2019 00:00:00 21,2 13,7 6 3 13 7 NNW 0,0
11.09.2019 23:00:00 21,0 15,1 3 2 10 5 NNE 0,0
11.09.2019 22:00:00 22,5 14,9 5 3 25 13 NNE 0,0
11.09.2019 21:00:00 22,9 15,3 8 4 32 17 ENE 0,0
11.09.2019 20:00:00 23,1 15,4 11 6 36 19 ENE -
11.09.2019 19:00:00 23,4 15,4 11 6 35 19 ENE 0,1
11.09.2019 18:00:00 24,2 15,7 11 6 38 21 ENE 0,0
11.09.2019 17:00:00 24,6 16,0 13 7 36 19 ENE 0,0
11.09.2019 16:00:00 24,8 15,7 11 6 31 17 ENE 0,1
11.09.2019 15:00:00 24,3 15,5 12 6 38 21 ENE 0,0
11.09.2019 14:00:00 23,6 15,3 14 7 34 18 NE -
11.09.2019 13:00:00 21,7 14,6 10 5 31 17 NNE 0,1
11.09.2019 12:00:00 19,4 14,6 9 5 34 18 N 0,0
11.09.2019 11:00:00 16,8 15,2 14 8 35 19 N 0,1
11.09.2019 10:00:00 18,0 13,7 14 8 38 20 N 0,0
11.09.2019 09:00:00 18,3 12,5 16 9 47 26 N 0,1
11.09.2019 08:00:00 16,5 12,2 16 9 47 25 NNW -
11.09.2019 07:00:00 16,6 11,6 24 13 57 31 NW 0,1
11.09.2019 06:00:00 14,6 9,8 27 15 54 29 NW 0,0
11.09.2019 05:00:00 16,1 9,8 27 15 55 30 NW 0,1
11.09.2019 04:00:00 16,0 10,0 20 11 35 19 NW 0,0
11.09.2019 03:00:00 16,4 10,0 11 6 50 27 NW 0,1
11.09.2019 02:00:00 16,5 9,2 19 11 42 23 NW -
11.09.2019 01:00:00 14,5 13,1 4 2 9 5 SW 0,0
11.09.2019 00:00:00 15,5 11,4 1 1 27 14 NE 0,1
10.09.2019 23:00:00 17,9 10,3 15 8 26 14 NW 0,0
10.09.2019 22:00:00 17,1 10,6 1 1 9 5 S 0,0
10.09.2019 21:00:00 17,3 11,3 2 1 8 5 N 0,1
10.09.2019 20:00:00 17,7 10,5 6 3 18 10 NNW -
10.09.2019 19:00:00 17,5 12,6 5 3 17 9 NNE 0,0
10.09.2019 18:00:00 19,4 10,9 8 4 27 14 NNE 0,0
10.09.2019 17:00:00 19,3 11,3 10 6 27 15 E 0,0
10.09.2019 16:00:00 21,8 9,0 6 4 28 15 N 0,1
10.09.2019 15:00:00 20,5 8,1 16 8 53 29 NW 0,1
10.09.2019 14:00:00 18,6 7,4 26 14 65 35 NW -
10.09.2019 13:00:00 18,3 7,1 26 14 72 39 NW 0,0
10.09.2019 12:00:00 17,5 7,0 29 16 66 35 NW 0,2
10.09.2019 11:00:00 - - - - - - - -
10.09.2019 10:00:00 - - - - - - - -
10.09.2019 09:00:00 - - - - - - - -
10.09.2019 08:00:00 - - - - - - - -
10.09.2019 07:00:00 - - - - - - - -
10.09.2019 06:00:00 - - - - - - - -
10.09.2019 05:00:00 - - - - - - - -

tt = temperature
td = dewpoint
ff = wind speed
fx = gusts
dd = wind direction
rr = precipitation

Next stations